createdAt,value
2023-03-30T06:20:24.337Z,11.85
2023-03-30T06:30:24.275Z,11.79
2023-03-30T06:40:24.303Z,12.24
2023-03-30T06:50:24.288Z,13.27
2023-03-30T07:00:24.227Z,13.27
2023-03-30T07:10:24.248Z,13.20
2023-03-30T07:20:24.441Z,13.16
2023-03-30T07:30:24.537Z,13.35
2023-03-30T07:40:24.294Z,13.38
2023-03-30T07:50:24.295Z,13.65
2023-03-30T08:00:24.314Z,14.06
2023-03-30T08:10:24.427Z,14.10
2023-03-30T08:20:24.395Z,14.33
2023-03-30T08:30:24.444Z,14.74
2023-03-30T08:40:24.364Z,14.73
2023-03-30T08:50:24.641Z,14.97
2023-03-30T09:00:24.532Z,15.18
2023-03-30T09:10:24.732Z,14.85
2023-03-30T09:20:24.656Z,15.33
2023-03-30T09:30:24.621Z,15.56
2023-03-30T09:40:24.554Z,15.94
2023-03-30T09:50:24.500Z,16.25
2023-03-30T10:00:24.564Z,15.50
2023-03-30T10:10:24.528Z,14.39
2023-03-30T10:20:24.660Z,13.12
2023-03-30T10:30:24.516Z,13.57
2023-03-30T10:40:24.594Z,14.23
2023-03-30T10:50:24.580Z,14.01
2023-03-30T11:00:24.709Z,12.87
2023-03-30T11:10:25.725Z,11.07
2023-03-30T11:20:24.736Z,11.14
2023-03-30T11:30:24.710Z,11.42
2023-03-30T11:40:26.730Z,12.42
2023-03-30T11:50:24.754Z,13.31
2023-03-30T12:00:24.749Z,14.18
2023-03-30T12:10:24.684Z,14.55
2023-03-30T12:20:24.709Z,14.58
2023-03-30T12:30:24.790Z,14.84
2023-03-30T12:40:24.599Z,14.48
2023-03-30T12:50:24.678Z,14.89
2023-03-30T13:00:24.631Z,14.68
2023-03-30T13:10:24.784Z,14.57
2023-03-30T13:20:30.072Z,14.49
2023-03-30T13:30:24.702Z,13.70
2023-03-30T13:40:38.098Z,14.09
2023-03-30T13:50:26.301Z,14.64
2023-03-30T14:00:24.757Z,14.96
2023-03-30T14:10:24.709Z,14.47
2023-03-30T14:20:24.769Z,14.96
2023-03-30T14:30:24.830Z,14.77
2023-03-30T14:40:24.916Z,14.73
2023-03-30T14:50:24.892Z,14.44
2023-03-30T15:00:25.072Z,15.06
2023-03-30T15:10:24.925Z,14.52
2023-03-30T15:20:24.823Z,14.92
2023-03-30T15:30:24.937Z,14.72
2023-03-30T15:40:24.852Z,14.20
2023-03-30T15:50:25.071Z,14.27
2023-03-30T16:00:24.967Z,13.60
2023-03-30T16:10:25.002Z,12.45
2023-03-30T16:20:25.097Z,12.77
2023-03-30T16:30:24.956Z,12.29
2023-03-30T16:40:25.099Z,12.25
2023-03-30T16:50:24.903Z,12.09
2023-03-30T17:00:25.126Z,12.03
2023-03-30T17:10:25.112Z,11.80
2023-03-30T17:20:25.060Z,11.43
2023-03-30T17:30:24.958Z,11.01
2023-03-30T17:40:25.204Z,11.09
2023-03-30T17:50:25.072Z,11.19
2023-03-30T18:00:24.975Z,11.12
2023-03-30T18:10:25.001Z,11.17
2023-03-30T18:20:24.980Z,11.02
2023-03-30T18:30:24.945Z,11.07
2023-03-30T18:40:25.151Z,11.13
2023-03-30T18:50:25.451Z,11.12
2023-03-30T19:00:25.314Z,11.09
2023-03-30T19:10:25.614Z,11.18
2023-03-30T19:20:25.651Z,11.16
